sensor_id;sensor_type;location;lat;lon;timestamp;pressure;altitude;pressure_sealevel;temperature;humidity
75759;BME280;64371;47.566;19.086;2023-10-08T00:00:42;100509.66;;;18.89;42.77
75759;BME280;64371;47.566;19.086;2023-10-08T00:04:04;100500.56;;;18.90;42.20
75759;BME280;64371;47.566;19.086;2023-10-08T00:07:07;100494.88;;;18.92;42.48
75759;BME280;64371;47.566;19.086;2023-10-08T00:10:09;100478.09;;;18.91;42.54
75759;BME280;64371;47.566;19.086;2023-10-08T00:13:13;100491.00;;;19.01;42.06
75759;BME280;64371;47.566;19.086;2023-10-08T00:16:17;100481.69;;;19.19;41.68
75759;BME280;64371;47.566;19.086;2023-10-08T00:19:23;100487.91;;;19.23;41.40
75759;BME280;64371;47.566;19.086;2023-10-08T00:22:26;100473.22;;;19.30;41.34
75759;BME280;64371;47.566;19.086;2023-10-08T00:25:28;100470.78;;;19.25;41.52
75759;BME280;64371;47.566;19.086;2023-10-08T00:28:33;100470.34;;;19.23;41.62
75759;BME280;64371;47.566;19.086;2023-10-08T00:31:37;100465.66;;;19.19;41.50
75759;BME280;64371;47.566;19.086;2023-10-08T00:34:43;100468.97;;;19.16;41.49
75759;BME280;64371;47.566;19.086;2023-10-08T00:37:46;100472.31;;;19.13;41.79
75759;BME280;64371;47.566;19.086;2023-10-08T00:40:50;100476.19;;;19.04;42.13
75759;BME280;64371;47.566;19.086;2023-10-08T00:43:58;100464.81;;;18.95;42.57
75759;BME280;64371;47.566;19.086;2023-10-08T00:47:04;100453.94;;;19.00;42.56
75759;BME280;64371;47.566;19.086;2023-10-08T00:50:09;100451.69;;;18.90;42.52
75759;BME280;64371;47.566;19.086;2023-10-08T00:53:21;100449.81;;;19.02;42.43
75759;BME280;64371;47.566;19.086;2023-10-08T00:56:27;100446.34;;;19.02;42.49
75759;BME280;64371;47.566;19.086;2023-10-08T00:59:48;100437.22;;;18.91;42.54
75759;BME280;64371;47.566;19.086;2023-10-08T01:02:58;100442.63;;;18.70;43.30
75759;BME280;64371;47.566;19.086;2023-10-08T01:06:04;100444.16;;;18.59;43.59
75759;BME280;64371;47.566;19.086;2023-10-08T01:09:11;100442.97;;;18.69;43.58
75759;BME280;64371;47.566;19.086;2023-10-08T01:12:22;100436.94;;;18.60;44.10
75759;BME280;64371;47.566;19.086;2023-10-08T01:15:29;100415.53;;;18.47;44.09
75759;BME280;64371;47.566;19.086;2023-10-08T01:18:32;100414.28;;;18.45;44.32
75759;BME280;64371;47.566;19.086;2023-10-08T01:21:38;100423.97;;;18.29;45.01
75759;BME280;64371;47.566;19.086;2023-10-08T01:24:42;100419.44;;;18.29;45.11
75759;BME280;64371;47.566;19.086;2023-10-08T01:27:45;100400.44;;;18.31;45.04
75759;BME280;64371;47.566;19.086;2023-10-08T01:30:48;100399.03;;;18.45;44.49
75759;BME280;64371;47.566;19.086;2023-10-08T01:33:55;100402.88;;;18.57;44.34
75759;BME280;64371;47.566;19.086;2023-10-08T01:36:59;100410.03;;;18.65;44.10
75759;BME280;64371;47.566;19.086;2023-10-08T01:40:05;100407.66;;;18.63;44.04
75759;BME280;64371;47.566;19.086;2023-10-08T01:43:09;100385.91;;;18.40;44.77
75759;BME280;64371;47.566;19.086;2023-10-08T01:46:15;100377.63;;;18.21;45.43
75759;BME280;64371;47.566;19.086;2023-10-08T01:49:18;100368.34;;;18.07;46.11
75759;BME280;64371;47.566;19.086;2023-10-08T01:52:24;100361.50;;;17.97;46.38
75759;BME280;64371;47.566;19.086;2023-10-08T01:55:26;100364.03;;;17.94;46.50
75759;BME280;64371;47.566;19.086;2023-10-08T01:58:29;100367.69;;;17.89;46.87
75759;BME280;64371;47.566;19.086;2023-10-08T02:01:32;100375.56;;;17.85;46.93
75759;BME280;64371;47.566;19.086;2023-10-08T02:04:34;100364.56;;;17.87;47.43
75759;BME280;64371;47.566;19.086;2023-10-08T02:07:41;100359.00;;;17.80;47.47
75759;BME280;64371;47.566;19.086;2023-10-08T02:10:46;100364.97;;;17.77;47.62
75759;BME280;64371;47.566;19.086;2023-10-08T02:13:51;100360.41;;;17.77;47.52
75759;BME280;64371;47.566;19.086;2023-10-08T02:16:54;100360.69;;;17.84;47.56
75759;BME280;64371;47.566;19.086;2023-10-08T02:19:58;100359.22;;;17.66;48.07
75759;BME280;64371;47.566;19.086;2023-10-08T02:23:02;100367.00;;;17.80;47.86
75759;BME280;64371;47.566;19.086;2023-10-08T02:26:08;100351.69;;;17.68;48.63
75759;BME280;64371;47.566;19.086;2023-10-08T02:29:12;100346.78;;;17.58;48.63
75759;BME280;64371;47.566;19.086;2023-10-08T02:32:14;100342.25;;;17.50;49.32
75759;BME280;64371;47.566;19.086;2023-10-08T02:35:17;100338.88;;;17.41;49.51
75759;BME280;64371;47.566;19.086;2023-10-08T02:38:20;100324.94;;;17.36;49.76
75759;BME280;64371;47.566;19.086;2023-10-08T02:41:26;100342.38;;;17.54;49.70
75759;BME280;64371;47.566;19.086;2023-10-08T02:44:32;100349.63;;;17.53;49.70
75759;BME280;64371;47.566;19.086;2023-10-08T02:47:35;100353.72;;;17.42;50.08
75759;BME280;64371;47.566;19.086;2023-10-08T02:50:39;100345.19;;;17.28;50.64
75759;BME280;64371;47.566;19.086;2023-10-08T02:53:46;100344.69;;;17.35;50.51
75759;BME280;64371;47.566;19.086;2023-10-08T02:56:53;100334.88;;;17.56;49.91
75759;BME280;64371;47.566;19.086;2023-10-08T03:00:02;100319.94;;;17.75;49.23
75759;BME280;64371;47.566;19.086;2023-10-08T03:03:06;100314.31;;;17.77;49.25
75759;BME280;64371;47.566;19.086;2023-10-08T03:06:19;100311.75;;;17.80;49.45
75759;BME280;64371;47.566;19.086;2023-10-08T03:09:22;100314.09;;;17.82;49.31
75759;BME280;64371;47.566;19.086;2023-10-08T03:12:34;100307.00;;;17.86;49.10
75759;BME280;64371;47.566;19.086;2023-10-08T03:15:40;100315.72;;;17.74;49.57
75759;BME280;64371;47.566;19.086;2023-10-08T03:18:49;100327.44;;;17.82;49.30
75759;BME280;64371;47.566;19.086;2023-10-08T03:21:52;100328.47;;;17.89;49.20
75759;BME280;64371;47.566;19.086;2023-10-08T03:24:58;100318.00;;;17.84;49.37
75759;BME280;64371;47.566;19.086;2023-10-08T03:28:01;100311.94;;;17.75;49.38
75759;BME280;64371;47.566;19.086;2023-10-08T03:31:04;100311.84;;;17.72;49.69
75759;BME280;64371;47.566;19.086;2023-10-08T03:34:08;100301.91;;;17.60;49.90
75759;BME280;64371;47.566;19.086;2023-10-08T03:37:17;100300.88;;;17.44;50.59
75759;BME280;64371;47.566;19.086;2023-10-08T03:40:23;100293.88;;;17.40;50.85
75759;BME280;64371;47.566;19.086;2023-10-08T03:43:44;100283.78;;;17.45;50.53
75759;BME280;64371;47.566;19.086;2023-10-08T03:47:06;100274.47;;;17.51;50.51
75759;BME280;64371;47.566;19.086;2023-10-08T03:50:14;100264.69;;;17.64;50.17
75759;BME280;64371;47.566;19.086;2023-10-08T03:53:20;100253.03;;;17.48;50.71
75759;BME280;64371;47.566;19.086;2023-10-08T03:56:26;100269.81;;;17.48;50.97
75759;BME280;64371;47.566;19.086;2023-10-08T03:59:32;100276.88;;;17.53;50.58
75759;BME280;64371;47.566;19.086;2023-10-08T04:02:36;100259.63;;;17.50;51.33
75759;BME280;64371;47.566;19.086;2023-10-08T04:05:44;100265.38;;;17.61;50.71
75759;BME280;64371;47.566;19.086;2023-10-08T04:09:01;100268.72;;;17.70;50.63
75759;BME280;64371;47.566;19.086;2023-10-08T04:12:26;100253.47;;;17.58;51.23
75759;BME280;64371;47.566;19.086;2023-10-08T04:15:29;100257.81;;;17.63;51.37
75759;BME280;64371;47.566;19.086;2023-10-08T04:18:31;100260.13;;;17.85;50.73
75759;BME280;64371;47.566;19.086;2023-10-08T04:21:41;100243.75;;;18.31;49.51
75759;BME280;64371;47.566;19.086;2023-10-08T04:24:45;100239.78;;;18.62;48.50
75759;BME280;64371;47.566;19.086;2023-10-08T04:27:47;100247.00;;;18.85;47.88
75759;BME280;64371;47.566;19.086;2023-10-08T04:30:51;100236.97;;;18.82;47.98
75759;BME280;64371;47.566;19.086;2023-10-08T04:33:55;100247.22;;;18.92;47.84
75759;BME280;64371;47.566;19.086;2023-10-08T04:37:03;100253.34;;;18.93;48.02
75759;BME280;64371;47.566;19.086;2023-10-08T04:40:14;100250.00;;;18.96;47.60
75759;BME280;64371;47.566;19.086;2023-10-08T04:46:30;100245.22;;;18.77;48.29
75759;BME280;64371;47.566;19.086;2023-10-08T04:49:41;100252.03;;;18.87;48.10
75759;BME280;64371;47.566;19.086;2023-10-08T04:52:47;100252.34;;;18.85;48.20
75759;BME280;64371;47.566;19.086;2023-10-08T04:56:03;100252.00;;;18.99;47.66
75759;BME280;64371;47.566;19.086;2023-10-08T04:59:09;100266.13;;;18.99;47.83
75759;BME280;64371;47.566;19.086;2023-10-08T05:02:14;100271.59;;;19.03;47.55
75759;BME280;64371;47.566;19.086;2023-10-08T05:05:23;100267.47;;;19.05;47.55
75759;BME280;64371;47.566;19.086;2023-10-08T05:08:26;100283.03;;;19.15;47.43
75759;BME280;64371;47.566;19.086;2023-10-08T05:11:35;100280.34;;;19.28;47.08
75759;BME280;64371;47.566;19.086;2023-10-08T05:14:52;100288.66;;;19.26;46.86
75759;BME280;64371;47.566;19.086;2023-10-08T05:18:13;100288.00;;;19.41;46.89
75759;BME280;64371;47.566;19.086;2023-10-08T05:21:26;100293.25;;;19.38;47.17
75759;BME280;64371;47.566;19.086;2023-10-08T05:24:30;100292.47;;;19.37;47.20
75759;BME280;64371;47.566;19.086;2023-10-08T05:27:41;100295.91;;;19.50;47.24
75759;BME280;64371;47.566;19.086;2023-10-08T05:30:51;100286.97;;;19.46;47.72
75759;BME280;64371;47.566;19.086;2023-10-08T05:34:08;100286.19;;;19.45;47.52
75759;BME280;64371;47.566;19.086;2023-10-08T05:37:19;100296.84;;;19.57;47.19
75759;BME280;64371;47.566;19.086;2023-10-08T05:40:34;100292.25;;;19.70;46.85
75759;BME280;64371;47.566;19.086;2023-10-08T05:43:55;100298.03;;;19.72;46.93
75759;BME280;64371;47.566;19.086;2023-10-08T05:47:17;100305.81;;;19.77;46.84
75759;BME280;64371;47.566;19.086;2023-10-08T05:50:34;100312.91;;;19.85;46.72
75759;BME280;64371;47.566;19.086;2023-10-08T05:53:58;100314.69;;;19.93;46.77
75759;BME280;64371;47.566;19.086;2023-10-08T05:57:08;100313.59;;;19.82;47.27
75759;BME280;64371;47.566;19.086;2023-10-08T06:00:15;100321.88;;;19.77;47.53
75759;BME280;64371;47.566;19.086;2023-10-08T06:03:17;100320.84;;;19.81;47.38
75759;BME280;64371;47.566;19.086;2023-10-08T06:06:43;100328.09;;;19.81;47.86
75759;BME280;64371;47.566;19.086;2023-10-08T06:10:00;100319.44;;;19.72;48.09
75759;BME280;64371;47.566;19.086;2023-10-08T06:13:16;100332.91;;;19.75;48.18
75759;BME280;64371;47.566;19.086;2023-10-08T06:16:18;100318.31;;;19.73;48.43
75759;BME280;64371;47.566;19.086;2023-10-08T06:19:33;100324.78;;;19.72;48.53
75759;BME280;64371;47.566;19.086;2023-10-08T06:22:36;100333.59;;;19.72;48.56
75759;BME280;64371;47.566;19.086;2023-10-08T06:25:39;100332.56;;;19.77;48.66
75759;BME280;64371;47.566;19.086;2023-10-08T06:28:47;100342.94;;;19.78;49.01
75759;BME280;64371;47.566;19.086;2023-10-08T06:31:50;100347.50;;;19.78;49.11
75759;BME280;64371;47.566;19.086;2023-10-08T06:34:55;100352.38;;;19.88;49.15
75759;BME280;64371;47.566;19.086;2023-10-08T06:37:58;100354.31;;;19.75;49.59
75759;BME280;64371;47.566;19.086;2023-10-08T06:41:11;100347.13;;;19.64;50.00
75759;BME280;64371;47.566;19.086;2023-10-08T06:44:28;100350.03;;;19.47;50.34
75759;BME280;64371;47.566;19.086;2023-10-08T06:47:31;100342.34;;;19.45;50.46
75759;BME280;64371;47.566;19.086;2023-10-08T06:50:34;100354.06;;;19.41;50.68
75759;BME280;64371;47.566;19.086;2023-10-08T06:53:40;100349.06;;;19.39;50.85
75759;BME280;64371;47.566;19.086;2023-10-08T06:56:46;100352.06;;;19.38;51.02
75759;BME280;64371;47.566;19.086;2023-10-08T06:59:55;100335.00;;;19.30;51.36
75759;BME280;64371;47.566;19.086;2023-10-08T07:02:57;100341.91;;;19.43;51.52
75759;BME280;64371;47.566;19.086;2023-10-08T07:06:00;100357.03;;;19.63;50.51
75759;BME280;64371;47.566;19.086;2023-10-08T07:09:19;100344.31;;;20.00;49.69
75759;BME280;64371;47.566;19.086;2023-10-08T07:12:25;100347.41;;;20.30;49.15
75759;BME280;64371;47.566;19.086;2023-10-08T07:15:27;100333.34;;;20.48;48.56
75759;BME280;64371;47.566;19.086;2023-10-08T07:18:30;100338.19;;;20.43;48.45
75759;BME280;64371;47.566;19.086;2023-10-08T07:21:33;100336.97;;;20.40;48.64
75759;BME280;64371;47.566;19.086;2023-10-08T07:24:47;100342.41;;;20.60;48.35
75759;BME280;64371;47.566;19.086;2023-10-08T07:27:53;100339.31;;;20.58;48.51
75759;BME280;64371;47.566;19.086;2023-10-08T07:30:55;100342.00;;;20.58;48.29
75759;BME280;64371;47.566;19.086;2023-10-08T07:34:00;100331.44;;;20.65;48.65
75759;BME280;64371;47.566;19.086;2023-10-08T07:37:17;100339.06;;;20.63;48.91
75759;BME280;64371;47.566;19.086;2023-10-08T07:40:21;100334.47;;;20.94;48.17
75759;BME280;64371;47.566;19.086;2023-10-08T07:43:29;100345.97;;;20.79;48.96
75759;BME280;64371;47.566;19.086;2023-10-08T07:46:34;100329.09;;;20.79;49.17
75759;BME280;64371;47.566;19.086;2023-10-08T07:49:37;100332.22;;;21.12;48.32
75759;BME280;64371;47.566;19.086;2023-10-08T07:52:39;100329.88;;;21.10;48.55
75759;BME280;64371;47.566;19.086;2023-10-08T07:55:47;100337.59;;;21.12;49.28
75759;BME280;64371;47.566;19.086;2023-10-08T07:58:50;100325.91;;;21.39;48.78
75759;BME280;64371;47.566;19.086;2023-10-08T08:01:53;100312.81;;;21.72;48.05
75759;BME280;64371;47.566;19.086;2023-10-08T08:04:57;100326.28;;;21.76;48.09
75759;BME280;64371;47.566;19.086;2023-10-08T08:07:59;100332.22;;;21.66;48.59
75759;BME280;64371;47.566;19.086;2023-10-08T08:11:08;100340.91;;;21.59;48.77
75759;BME280;64371;47.566;19.086;2023-10-08T08:14:15;100346.03;;;21.68;48.98
75759;BME280;64371;47.566;19.086;2023-10-08T08:17:19;100349.47;;;22.03;48.11
75759;BME280;64371;47.566;19.086;2023-10-08T08:20:22;100355.72;;;22.30;48.05
75759;BME280;64371;47.566;19.086;2023-10-08T08:23:36;100356.97;;;22.59;46.67
75759;BME280;64371;47.566;19.086;2023-10-08T08:26:40;100360.78;;;22.77;46.81
75759;BME280;64371;47.566;19.086;2023-10-08T08:29:47;100347.41;;;22.16;47.82
75759;BME280;64371;47.566;19.086;2023-10-08T08:32:50;100368.94;;;22.61;47.22
75759;BME280;64371;47.566;19.086;2023-10-08T08:36:01;100356.91;;;23.00;46.59
75759;BME280;64371;47.566;19.086;2023-10-08T08:39:05;100363.34;;;22.28;48.06
75759;BME280;64371;47.566;19.086;2023-10-08T08:42:10;100352.78;;;22.38;47.96
75759;BME280;64371;47.566;19.086;2023-10-08T08:45:18;100369.47;;;22.48;47.99
75759;BME280;64371;47.566;19.086;2023-10-08T08:48:21;100374.94;;;22.74;47.54
75759;BME280;64371;47.566;19.086;2023-10-08T08:51:24;100376.31;;;22.64;47.96
75759;BME280;64371;47.566;19.086;2023-10-08T08:54:27;100391.25;;;22.42;48.54
75759;BME280;64371;47.566;19.086;2023-10-08T08:57:32;100384.63;;;22.17;49.59
75759;BME280;64371;47.566;19.086;2023-10-08T09:00:35;100393.66;;;22.28;49.56
75759;BME280;64371;47.566;19.086;2023-10-08T09:03:40;100395.66;;;22.12;49.94
75759;BME280;64371;47.566;19.086;2023-10-08T09:06:42;100403.31;;;21.91;50.69
75759;BME280;64371;47.566;19.086;2023-10-08T09:09:47;100400.56;;;21.72;50.89
75759;BME280;64371;47.566;19.086;2023-10-08T09:12:51;100397.69;;;21.80;51.34
75759;BME280;64371;47.566;19.086;2023-10-08T09:16:03;100393.00;;;21.77;51.52
75759;BME280;64371;47.566;19.086;2023-10-08T09:19:09;100423.84;;;21.68;52.16
75759;BME280;64371;47.566;19.086;2023-10-08T09:22:14;100417.00;;;21.70;52.22
75759;BME280;64371;47.566;19.086;2023-10-08T09:25:21;100429.69;;;21.54;52.76
75759;BME280;64371;47.566;19.086;2023-10-08T09:28:27;100428.53;;;21.36;53.84
75759;BME280;64371;47.566;19.086;2023-10-08T09:31:29;100446.94;;;21.38;53.82
75759;BME280;64371;47.566;19.086;2023-10-08T09:34:41;100451.56;;;21.22;54.13
75759;BME280;64371;47.566;19.086;2023-10-08T09:37:45;100469.53;;;21.05;54.50
75759;BME280;64371;47.566;19.086;2023-10-08T09:40:48;100476.16;;;20.96;55.21
75759;BME280;64371;47.566;19.086;2023-10-08T09:43:51;100464.22;;;20.93;55.23
75759;BME280;64371;47.566;19.086;2023-10-08T09:50:02;100481.69;;;21.03;55.37
75759;BME280;64371;47.566;19.086;2023-10-08T09:53:13;100482.03;;;20.86;55.73
75759;BME280;64371;47.566;19.086;2023-10-08T09:56:20;100506.19;;;20.74;56.31
75759;BME280;64371;47.566;19.086;2023-10-08T09:59:23;100513.22;;;20.50;57.02
75759;BME280;64371;47.566;19.086;2023-10-08T10:02:30;100522.66;;;20.32;57.94
75759;BME280;64371;47.566;19.086;2023-10-08T10:05:35;100529.81;;;20.28;58.18
75759;BME280;64371;47.566;19.086;2023-10-08T10:08:42;100532.47;;;20.16;58.60
75759;BME280;64371;47.566;19.086;2023-10-08T10:11:51;100542.78;;;20.02;59.31
75759;BME280;64371;47.566;19.086;2023-10-08T10:14:57;100524.06;;;19.78;59.19
75759;BME280;64371;47.566;19.086;2023-10-08T10:24:36;100533.88;;;19.86;60.41
75759;BME280;64371;47.566;19.086;2023-10-08T10:30:58;100546.91;;;20.00;59.90
75759;BME280;64371;47.566;19.086;2023-10-08T10:34:08;100540.31;;;20.09;59.67
75759;BME280;64371;47.566;19.086;2023-10-08T10:37:11;100524.38;;;20.13;58.79
75759;BME280;64371;47.566;19.086;2023-10-08T10:40:23;100537.97;;;20.08;57.95
75759;BME280;64371;47.566;19.086;2023-10-08T10:43:43;100555.28;;;19.98;56.71
75759;BME280;64371;47.566;19.086;2023-10-08T10:46:55;100559.63;;;19.91;56.76
75759;BME280;64371;47.566;19.086;2023-10-08T10:50:18;100561.41;;;19.74;55.46
75759;BME280;64371;47.566;19.086;2023-10-08T10:53:29;100576.44;;;19.67;55.25
75759;BME280;64371;47.566;19.086;2023-10-08T10:56:32;100563.75;;;19.52;54.68
75759;BME280;64371;47.566;19.086;2023-10-08T10:59:42;100573.31;;;19.53;54.72
75759;BME280;64371;47.566;19.086;2023-10-08T11:02:56;100572.78;;;19.27;53.15
75759;BME280;64371;47.566;19.086;2023-10-08T11:06:02;100582.16;;;19.20;54.03
75759;BME280;64371;47.566;19.086;2023-10-08T11:09:09;100584.25;;;19.15;53.55
75759;BME280;64371;47.566;19.086;2023-10-08T11:12:18;100583.69;;;19.21;53.70
75759;BME280;64371;47.566;19.086;2023-10-08T11:15:25;100595.28;;;19.26;54.16
75759;BME280;64371;47.566;19.086;2023-10-08T11:18:31;100598.59;;;19.10;55.07
75759;BME280;64371;47.566;19.086;2023-10-08T11:21:51;100585.78;;;19.16;55.33
75759;BME280;64371;47.566;19.086;2023-10-08T11:24:56;100595.13;;;19.10;55.77
75759;BME280;64371;47.566;19.086;2023-10-08T11:27:59;100593.00;;;19.03;54.79
75759;BME280;64371;47.566;19.086;2023-10-08T11:31:12;100596.88;;;18.94;53.74
75759;BME280;64371;47.566;19.086;2023-10-08T11:34:15;100604.53;;;18.95;53.65
75759;BME280;64371;47.566;19.086;2023-10-08T11:37:32;100606.06;;;18.84;52.79
75759;BME280;64371;47.566;19.086;2023-10-08T11:40:38;100601.47;;;18.85;52.78
75759;BME280;64371;47.566;19.086;2023-10-08T11:43:54;100616.63;;;18.60;53.36
75759;BME280;64371;47.566;19.086;2023-10-08T11:47:00;100618.75;;;18.67;52.81
75759;BME280;64371;47.566;19.086;2023-10-08T11:50:13;100627.88;;;18.36;52.90
75759;BME280;64371;47.566;19.086;2023-10-08T11:53:20;100632.06;;;18.17;53.14
75759;BME280;64371;47.566;19.086;2023-10-08T11:56:23;100664.00;;;18.05;53.81
75759;BME280;64371;47.566;19.086;2023-10-08T11:59:25;100660.94;;;17.85;54.37
75759;BME280;64371;47.566;19.086;2023-10-08T12:02:27;100653.25;;;17.84;54.57
75759;BME280;64371;47.566;19.086;2023-10-08T12:05:31;100666.13;;;17.82;54.58
75759;BME280;64371;47.566;19.086;2023-10-08T12:08:36;100680.28;;;17.65;54.72
75759;BME280;64371;47.566;19.086;2023-10-08T12:11:41;100680.91;;;17.37;53.71
75759;BME280;64371;47.566;19.086;2023-10-08T12:14:45;100687.19;;;17.32;53.77
75759;BME280;64371;47.566;19.086;2023-10-08T12:17:50;100694.59;;;17.27;53.99
75759;BME280;64371;47.566;19.086;2023-10-08T12:21:11;100712.28;;;17.31;54.07
75759;BME280;64371;47.566;19.086;2023-10-08T12:24:17;100706.97;;;17.14;53.69
75759;BME280;64371;47.566;19.086;2023-10-08T12:27:19;100719.03;;;17.11;53.45
75759;BME280;64371;47.566;19.086;2023-10-08T12:30:24;100710.72;;;17.04;53.47
75759;BME280;64371;47.566;19.086;2023-10-08T12:33:33;100715.56;;;16.94;53.28
75759;BME280;64371;47.566;19.086;2023-10-08T12:36:37;100716.97;;;16.91;53.34
75759;BME280;64371;47.566;19.086;2023-10-08T12:39:40;100730.75;;;16.93;53.92
75759;BME280;64371;47.566;19.086;2023-10-08T12:42:59;100726.69;;;16.87;54.02
75759;BME280;64371;47.566;19.086;2023-10-08T12:46:02;100732.81;;;16.96;53.08
75759;BME280;64371;47.566;19.086;2023-10-08T12:49:04;100735.75;;;16.86;51.79
75759;BME280;64371;47.566;19.086;2023-10-08T12:52:07;100744.31;;;16.57;51.98
75759;BME280;64371;47.566;19.086;2023-10-08T12:55:11;100753.41;;;16.56;51.27
75759;BME280;64371;47.566;19.086;2023-10-08T12:58:13;100743.16;;;16.50;51.19
75759;BME280;64371;47.566;19.086;2023-10-08T13:01:17;100752.91;;;16.54;51.58
75759;BME280;64371;47.566;19.086;2023-10-08T13:04:20;100761.16;;;16.44;51.67
75759;BME280;64371;47.566;19.086;2023-10-08T13:07:31;100753.31;;;16.39;51.99
75759;BME280;64371;47.566;19.086;2023-10-08T13:10:40;100764.56;;;16.36;52.28
75759;BME280;64371;47.566;19.086;2023-10-08T13:13:43;100749.50;;;16.32;52.12
75759;BME280;64371;47.566;19.086;2023-10-08T13:16:47;100749.66;;;16.35;51.86
75759;BME280;64371;47.566;19.086;2023-10-08T13:19:51;100754.50;;;16.25;52.29
75759;BME280;64371;47.566;19.086;2023-10-08T13:22:54;100751.50;;;16.26;52.21
75759;BME280;64371;47.566;19.086;2023-10-08T13:25:57;100753.69;;;16.24;52.25
75759;BME280;64371;47.566;19.086;2023-10-08T13:29:06;100770.09;;;16.18;52.75
75759;BME280;64371;47.566;19.086;2023-10-08T13:32:09;100770.09;;;16.18;52.84
75759;BME280;64371;47.566;19.086;2023-10-08T13:35:19;100758.19;;;16.15;52.57
75759;BME280;64371;47.566;19.086;2023-10-08T13:38:22;100751.75;;;16.08;52.44
75759;BME280;64371;47.566;19.086;2023-10-08T13:41:25;100768.03;;;16.15;52.20
75759;BME280;64371;47.566;19.086;2023-10-08T13:44:31;100772.38;;;16.11;51.76
75759;BME280;64371;47.566;19.086;2023-10-08T13:47:34;100796.97;;;16.08;52.03
75759;BME280;64371;47.566;19.086;2023-10-08T13:50:36;100791.50;;;16.13;51.80
75759;BME280;64371;47.566;19.086;2023-10-08T13:53:41;100786.47;;;16.11;51.17
75759;BME280;64371;47.566;19.086;2023-10-08T13:56:47;100780.22;;;16.07;51.62
75759;BME280;64371;47.566;19.086;2023-10-08T13:59:51;100770.94;;;15.96;51.73
75759;BME280;64371;47.566;19.086;2023-10-08T14:02:54;100772.78;;;15.96;51.50
75759;BME280;64371;47.566;19.086;2023-10-08T14:05:58;100761.69;;;15.93;51.26
75759;BME280;64371;47.566;19.086;2023-10-08T14:09:08;100782.75;;;15.90;50.88
75759;BME280;64371;47.566;19.086;2023-10-08T14:12:14;100796.97;;;15.85;50.97
75759;BME280;64371;47.566;19.086;2023-10-08T14:15:16;100801.19;;;15.86;50.40
75759;BME280;64371;47.566;19.086;2023-10-08T14:18:19;100791.28;;;15.78;50.33
75759;BME280;64371;47.566;19.086;2023-10-08T14:21:28;100804.09;;;15.76;50.37
75759;BME280;64371;47.566;19.086;2023-10-08T14:24:32;100804.22;;;15.71;50.29
75759;BME280;64371;47.566;19.086;2023-10-08T14:27:39;100809.53;;;15.71;50.61
75759;BME280;64371;47.566;19.086;2023-10-08T14:30:42;100814.91;;;15.80;50.09
75759;BME280;64371;47.566;19.086;2023-10-08T14:33:44;100818.31;;;15.72;49.97
75759;BME280;64371;47.566;19.086;2023-10-08T14:37:08;100816.41;;;15.72;49.84
75759;BME280;64371;47.566;19.086;2023-10-08T14:40:29;100813.25;;;15.70;49.60
75759;BME280;64371;47.566;19.086;2023-10-08T14:43:50;100820.44;;;15.70;49.50
75759;BME280;64371;47.566;19.086;2023-10-08T14:46:54;100830.91;;;15.66;49.70
75759;BME280;64371;47.566;19.086;2023-10-08T14:49:57;100831.25;;;15.51;49.96
75759;BME280;64371;47.566;19.086;2023-10-08T14:53:02;100832.03;;;15.52;49.76
75759;BME280;64371;47.566;19.086;2023-10-08T14:56:08;100825.31;;;15.41;49.08
75759;BME280;64371;47.566;19.086;2023-10-08T14:59:11;100838.22;;;15.34;49.89
75759;BME280;64371;47.566;19.086;2023-10-08T15:02:14;100840.13;;;15.33;49.64
75759;BME280;64371;47.566;19.086;2023-10-08T15:05:16;100849.47;;;15.31;49.59
75759;BME280;64371;47.566;19.086;2023-10-08T15:08:20;100853.88;;;15.21;50.06
75759;BME280;64371;47.566;19.086;2023-10-08T15:11:24;100852.44;;;15.15;50.01
75759;BME280;64371;47.566;19.086;2023-10-08T15:14:29;100854.88;;;15.12;50.16
75759;BME280;64371;47.566;19.086;2023-10-08T15:17:31;100847.31;;;15.05;50.54
75759;BME280;64371;47.566;19.086;2023-10-08T15:20:36;100870.03;;;14.98;50.66
75759;BME280;64371;47.566;19.086;2023-10-08T15:23:39;100867.69;;;14.96;50.44
75759;BME280;64371;47.566;19.086;2023-10-08T15:26:41;100887.72;;;14.89;50.02
75759;BME280;64371;47.566;19.086;2023-10-08T15:29:43;100897.06;;;14.86;49.80
75759;BME280;64371;47.566;19.086;2023-10-08T15:32:47;100904.06;;;14.82;48.88
75759;BME280;64371;47.566;19.086;2023-10-08T15:35:50;100918.78;;;14.75;50.11
75759;BME280;64371;47.566;19.086;2023-10-08T15:38:52;100924.19;;;14.70;49.74
75759;BME280;64371;47.566;19.086;2023-10-08T15:41:55;100932.81;;;14.61;49.80
75759;BME280;64371;47.566;19.086;2023-10-08T15:44:59;100940.03;;;14.56;50.07
75759;BME280;64371;47.566;19.086;2023-10-08T15:48:01;100941.78;;;14.47;50.74
75759;BME280;64371;47.566;19.086;2023-10-08T15:51:04;100953.19;;;14.47;50.52
75759;BME280;64371;47.566;19.086;2023-10-08T15:54:07;100961.00;;;14.39;50.79
75759;BME280;64371;47.566;19.086;2023-10-08T15:57:09;100972.34;;;14.26;51.02
75759;BME280;64371;47.566;19.086;2023-10-08T16:00:12;100986.09;;;14.09;52.34
75759;BME280;64371;47.566;19.086;2023-10-08T16:03:17;100999.19;;;14.01;51.10
75759;BME280;64371;47.566;19.086;2023-10-08T16:06:20;100990.91;;;14.07;50.50
75759;BME280;64371;47.566;19.086;2023-10-08T16:09:22;100980.50;;;13.92;50.96
75759;BME280;64371;47.566;19.086;2023-10-08T16:12:25;100988.34;;;13.78;52.56
75759;BME280;64371;47.566;19.086;2023-10-08T16:15:27;100988.69;;;13.72;52.28
75759;BME280;64371;47.566;19.086;2023-10-08T16:18:30;100998.78;;;13.70;52.58